createdAt,value
2023-05-03T00:00:51.468Z,99179.38
2023-05-03T00:03:23.829Z,99175.78
2023-05-03T00:05:50.493Z,99183.84
2023-05-03T00:08:17.220Z,99188.63
2023-05-03T00:10:43.686Z,99179.63
2023-05-03T00:13:10.217Z,99180.22
2023-05-03T00:15:36.720Z,99185.34
2023-05-03T00:18:03.254Z,99186.03
2023-05-03T00:20:29.799Z,99182.88
2023-05-03T00:22:56.281Z,99186.25
2023-05-03T00:25:22.749Z,99189.41
2023-05-03T00:27:49.221Z,99191.06
2023-05-03T00:30:15.983Z,99195.53
2023-05-03T00:32:42.520Z,99196.56
2023-05-03T00:35:09.011Z,99190.34
2023-05-03T00:37:36.886Z,99193.72
2023-05-03T00:40:05.060Z,99198.91
2023-05-03T00:42:34.326Z,99189.75
2023-05-03T00:45:01.175Z,99188.09
2023-05-03T00:47:27.759Z,99184.75
2023-05-03T00:49:54.265Z,99185.91
2023-05-03T00:52:20.802Z,99182.88
2023-05-03T00:54:47.430Z,99188.09
2023-05-03T00:57:14.495Z,99179.56
2023-05-03T00:59:41.267Z,99182.47
2023-05-03T01:02:08.445Z,99185.22
2023-05-03T01:04:37.105Z,99183.84
2023-05-03T01:07:11.228Z,99181.38
2023-05-03T01:09:52.577Z,99182.78
2023-05-03T01:12:40.837Z,99177.56
2023-05-03T01:15:22.559Z,99177.41
2023-05-03T01:17:59.701Z,99172.19
2023-05-03T01:20:30.952Z,99173.56
2023-05-03T01:23:09.963Z,99178.84
2023-05-03T01:25:36.588Z,99172.84
2023-05-03T01:28:03.386Z,99170.47
2023-05-03T01:30:31.548Z,99173.00
2023-05-03T01:33:13.200Z,99179.59
2023-05-03T01:35:58.737Z,99172.81
2023-05-03T01:38:27.314Z,99170.31
2023-05-03T01:40:58.376Z,99171.69
2023-05-03T01:43:25.798Z,99172.19
2023-05-03T01:45:52.479Z,99179.22
2023-05-03T01:48:19.834Z,99171.69
2023-05-03T01:50:47.006Z,99179.44
2023-05-03T01:53:13.889Z,99168.56
2023-05-03T01:55:40.404Z,99164.06
2023-05-03T01:58:06.966Z,99161.69
2023-05-03T02:00:33.635Z,99166.56
2023-05-03T02:03:00.245Z,99161.28
2023-05-03T02:05:26.812Z,99157.94
2023-05-03T02:07:53.254Z,99158.38
2023-05-03T02:10:19.798Z,99164.81
2023-05-03T02:12:46.765Z,99165.53
2023-05-03T02:15:13.958Z,99161.06
2023-05-03T02:17:43.831Z,99155.50
2023-05-03T02:20:10.884Z,99162.75
2023-05-03T02:22:37.548Z,99162.06
2023-05-03T02:25:05.054Z,99156.88
2023-05-03T02:27:31.589Z,99163.44
2023-05-03T02:29:58.044Z,99157.50
2023-05-03T02:32:25.645Z,99161.72
2023-05-03T02:34:52.269Z,99164.78
2023-05-03T02:37:18.756Z,99160.66
2023-05-03T02:39:45.189Z,99159.69
2023-05-03T02:42:11.641Z,99157.09
2023-05-03T02:44:38.088Z,99155.41
2023-05-03T02:47:04.701Z,99153.16
2023-05-03T02:49:31.271Z,99157.09
2023-05-03T02:51:58.227Z,99154.31
2023-05-03T02:54:24.878Z,99150.03
2023-05-03T02:56:51.423Z,99156.53
2023-05-03T02:59:18.086Z,99159.66
2023-05-03T03:01:46.631Z,99151.22
2023-05-03T03:04:13.267Z,99150.78
2023-05-03T03:06:39.786Z,99146.84
2023-05-03T03:09:06.342Z,99152.41
2023-05-03T03:11:33.298Z,99153.97
2023-05-03T03:13:59.727Z,99162.09
2023-05-03T03:16:26.312Z,99166.28
2023-05-03T03:18:52.898Z,99149.47
2023-05-03T03:21:19.432Z,99157.47
2023-05-03T03:23:45.975Z,99171.31
2023-05-03T03:26:12.822Z,99164.56
2023-05-03T03:28:39.336Z,99161.34
2023-05-03T03:31:06.074Z,99166.72
2023-05-03T03:33:32.651Z,99166.31
2023-05-03T03:35:59.145Z,99171.88
2023-05-03T03:38:25.692Z,99163.00
2023-05-03T03:40:52.781Z,99174.94
2023-05-03T03:43:19.293Z,99161.75
2023-05-03T03:45:45.862Z,99168.38
2023-05-03T03:48:12.342Z,99172.38
2023-05-03T03:50:38.884Z,99170.88
2023-05-03T03:53:06.230Z,99180.56
2023-05-03T03:55:32.743Z,99179.59
2023-05-03T03:57:59.323Z,99177.63
2023-05-03T04:00:26.162Z,99178.81
2023-05-03T04:02:52.764Z,99173.50
2023-05-03T04:05:19.496Z,99178.66
2023-05-03T04:07:45.980Z,99176.53
2023-05-03T04:10:12.530Z,99183.91
2023-05-03T04:12:39.072Z,99182.34
2023-05-03T04:15:06.593Z,99181.28
2023-05-03T04:17:34.966Z,99182.16
2023-05-03T04:20:07.973Z,99190.66
2023-05-03T04:22:34.498Z,99188.59
2023-05-03T04:25:03.643Z,99192.63
2023-05-03T04:27:30.246Z,99196.63
2023-05-03T04:29:57.206Z,99198.31
2023-05-03T04:32:23.688Z,99204.38
2023-05-03T04:34:53.897Z,99198.09
2023-05-03T04:37:22.100Z,99200.13
2023-05-03T04:39:48.618Z,99202.88
2023-05-03T04:42:15.434Z,99198.53
2023-05-03T04:44:43.111Z,99197.66
2023-05-03T04:47:09.726Z,99203.56
2023-05-03T04:49:36.550Z,99198.06
2023-05-03T04:52:03.722Z,99211.63
2023-05-03T04:54:30.161Z,99204.56
2023-05-03T04:56:56.813Z,99207.91
2023-05-03T04:59:23.338Z,99203.50
2023-05-03T05:01:49.842Z,99212.16
2023-05-03T05:04:16.443Z,99214.16
2023-05-03T05:06:42.934Z,99205.66
2023-05-03T05:09:21.362Z,99208.94
2023-05-03T05:11:47.958Z,99212.38
2023-05-03T05:14:14.475Z,99218.72
2023-05-03T05:16:41.202Z,99217.31
2023-05-03T05:19:08.518Z,99219.03
2023-05-03T05:21:35.146Z,99219.47
2023-05-03T05:24:01.937Z,99222.91
2023-05-03T05:26:28.658Z,99226.31
2023-05-03T05:28:55.141Z,99232.03
2023-05-03T05:31:21.990Z,99227.81
2023-05-03T05:33:48.601Z,99228.88
2023-05-03T05:36:15.114Z,99229.25
2023-05-03T05:38:41.860Z,99241.56
2023-05-03T05:41:08.338Z,99242.69
2023-05-03T05:43:34.808Z,99239.81
2023-05-03T05:46:01.512Z,99234.28
2023-05-03T05:48:27.961Z,99239.06
2023-05-03T05:50:54.417Z,99240.97
2023-05-03T05:53:20.922Z,99229.84
2023-05-03T05:55:47.516Z,99230.72
2023-05-03T05:58:14.030Z,99223.31
2023-05-03T06:00:40.991Z,99236.59
2023-05-03T06:03:07.672Z,99222.03
2023-05-03T06:05:34.184Z,99222.34
2023-05-03T06:08:00.693Z,99217.22
2023-05-03T06:10:27.194Z,99219.22
2023-05-03T06:12:53.701Z,99219.34
2023-05-03T06:15:20.332Z,99214.13
2023-05-03T06:17:47.262Z,99215.59
2023-05-03T06:20:13.967Z,99217.38
2023-05-03T06:22:40.669Z,99212.97
2023-05-03T06:25:07.701Z,99216.84
2023-05-03T06:27:34.203Z,99206.75
2023-05-03T06:30:02.121Z,99208.06
2023-05-03T06:32:28.822Z,99206.00
2023-05-03T06:34:55.674Z,99210.56
2023-05-03T06:37:23.019Z,99213.44
2023-05-03T06:39:50.553Z,99207.66
2023-05-03T06:42:16.966Z,99203.28
2023-05-03T06:44:43.488Z,99203.88
2023-05-03T06:47:10.000Z,99204.97
2023-05-03T06:49:36.632Z,99197.00
2023-05-03T06:52:03.162Z,99195.06
2023-05-03T06:54:29.676Z,99196.03
2023-05-03T06:56:56.163Z,99191.72
2023-05-03T06:59:22.754Z,99182.34
2023-05-03T07:01:50.722Z,99188.19
2023-05-03T07:04:17.310Z,99180.56
2023-05-03T07:06:55.372Z,99179.97
2023-05-03T07:09:35.372Z,99163.47
2023-05-03T07:12:08.465Z,99168.13
2023-05-03T07:14:34.979Z,99160.63
2023-05-03T07:17:01.495Z,99158.16
2023-05-03T07:19:27.967Z,99159.59
2023-05-03T07:21:54.477Z,99149.88
2023-05-03T07:24:20.923Z,99148.94
2023-05-03T07:26:48.983Z,99144.22
2023-05-03T07:29:15.752Z,99139.19
2023-05-03T07:31:42.414Z,99133.16
2023-05-03T07:34:08.859Z,99135.88
2023-05-03T07:36:35.399Z,99132.88
2023-05-03T07:39:01.946Z,99132.84
2023-05-03T07:41:28.517Z,99129.97
2023-05-03T07:43:55.298Z,99117.66
2023-05-03T07:46:21.927Z,99119.34
2023-05-03T07:48:48.549Z,99118.25
2023-05-03T07:51:15.372Z,99117.88
2023-05-03T07:53:41.807Z,99128.38
2023-05-03T07:56:08.307Z,99117.59
2023-05-03T07:58:40.162Z,99112.97
2023-05-03T08:01:07.275Z,99114.97
2023-05-03T08:03:33.940Z,99114.78
2023-05-03T08:06:00.826Z,99114.00
2023-05-03T08:08:27.879Z,99110.03
2023-05-03T08:10:54.561Z,99109.44
2023-05-03T08:13:22.690Z,99106.31
2023-05-03T08:15:50.186Z,99112.38
2023-05-03T08:18:16.931Z,99105.38
2023-05-03T08:20:44.906Z,99105.69
2023-05-03T08:23:11.325Z,99099.78
2023-05-03T08:25:37.893Z,99106.16
2023-05-03T08:28:04.656Z,99099.03
2023-05-03T08:30:31.557Z,99094.59
2023-05-03T08:32:58.282Z,99096.63
2023-05-03T08:35:25.368Z,99091.91
2023-05-03T08:37:51.867Z,99080.00
2023-05-03T08:40:22.266Z,99084.81
2023-05-03T08:42:50.122Z,99087.41
2023-05-03T08:45:16.917Z,99087.63
2023-05-03T08:47:47.190Z,99085.06
2023-05-03T08:50:15.733Z,99078.88
2023-05-03T08:52:43.893Z,99083.72
2023-05-03T08:55:11.145Z,99083.19
2023-05-03T08:57:38.160Z,99081.97
2023-05-03T09:00:06.810Z,99090.56
2023-05-03T09:02:34.911Z,99086.06
2023-05-03T09:05:01.898Z,99095.31
2023-05-03T09:07:28.514Z,99096.34
2023-05-03T09:09:55.004Z,99089.91
2023-05-03T09:12:41.002Z,99089.97
2023-05-03T09:15:08.848Z,99094.28
2023-05-03T09:17:35.419Z,99093.59
2023-05-03T09:20:02.466Z,99094.88
2023-05-03T09:22:32.579Z,99106.75
2023-05-03T09:25:01.001Z,99108.19
2023-05-03T09:27:28.170Z,99103.78
2023-05-03T09:29:55.076Z,99101.72
2023-05-03T09:32:22.973Z,99095.13
2023-05-03T09:34:49.629Z,99103.69
2023-05-03T09:37:16.545Z,99095.44
2023-05-03T09:39:45.715Z,99106.53
2023-05-03T09:42:17.049Z,99097.38
2023-05-03T09:44:53.824Z,99092.56
2023-05-03T09:47:21.726Z,99095.44
2023-05-03T09:49:48.623Z,99092.63
2023-05-03T09:52:15.107Z,99093.28
2023-05-03T09:54:42.337Z,99094.06
2023-05-03T09:57:09.417Z,99095.50
2023-05-03T09:59:38.060Z,99088.28
2023-05-03T10:02:07.771Z,99094.53
2023-05-03T10:04:50.788Z,99089.25
2023-05-03T10:07:18.922Z,99088.59
2023-05-03T10:09:48.531Z,99085.22
2023-05-03T10:12:18.417Z,99089.44
2023-05-03T10:14:47.051Z,99091.31
2023-05-03T10:17:22.275Z,99091.59
2023-05-03T10:19:55.562Z,99074.97
2023-05-03T10:22:22.097Z,99077.50
2023-05-03T10:24:57.422Z,99067.16
2023-05-03T10:27:24.155Z,99077.41
2023-05-03T10:29:51.885Z,99075.31
2023-05-03T10:32:34.482Z,99067.03
2023-05-03T10:35:13.886Z,99061.50
2023-05-03T10:37:42.491Z,99048.22
2023-05-03T10:40:11.858Z,99050.91
2023-05-03T10:42:39.892Z,99050.72
2023-05-03T10:45:09.889Z,99054.47
2023-05-03T10:47:36.488Z,99048.97
2023-05-03T10:50:11.865Z,99044.00
2023-05-03T10:52:38.562Z,99031.03
2023-05-03T10:55:14.140Z,99031.38
2023-05-03T10:57:43.563Z,99027.22
2023-05-03T11:00:16.771Z,99029.28
2023-05-03T11:02:56.620Z,99022.84
2023-05-03T11:05:28.424Z,99024.22
2023-05-03T11:08:15.066Z,99019.56
2023-05-03T11:10:41.946Z,99014.03
2023-05-03T11:13:08.473Z,99004.66
2023-05-03T11:15:35.214Z,99010.56
2023-05-03T11:18:02.748Z,99002.25
2023-05-03T11:20:30.008Z,99001.94
2023-05-03T11:22:56.717Z,98998.00
2023-05-03T11:25:23.246Z,99009.00
2023-05-03T11:27:49.838Z,99002.09
2023-05-03T11:30:16.446Z,98997.84
2023-05-03T11:32:43.291Z,98997.00
2023-05-03T11:35:18.650Z,98994.50
2023-05-03T11:37:45.213Z,98994.09
2023-05-03T11:40:17.018Z,98993.84
2023-05-03T11:42:58.417Z,98983.59
2023-05-03T11:45:28.355Z,98978.53
2023-05-03T11:47:56.161Z,98970.41
2023-05-03T11:50:51.006Z,98975.22
2023-05-03T11:53:18.848Z,98976.78
2023-05-03T11:55:48.179Z,98968.97
2023-05-03T11:58:24.908Z,98968.25
2023-05-03T12:00:53.288Z,98962.56
2023-05-03T12:03:22.427Z,98976.31
2023-05-03T12:05:53.146Z,98964.63
2023-05-03T12:08:21.958Z,98967.78
2023-05-03T12:10:50.400Z,98965.56
2023-05-03T12:13:34.534Z,98956.81
2023-05-03T12:18:47.359Z,98951.72
2023-05-03T12:23:46.096Z,98943.50
2023-05-03T12:26:14.557Z,98940.75
2023-05-03T12:28:41.481Z,98935.63
2023-05-03T12:31:08.235Z,98939.38
2023-05-03T12:33:38.190Z,98927.91
2023-05-03T12:36:09.293Z,98933.84
2023-05-03T12:38:37.733Z,98922.25
2023-05-03T12:43:31.437Z,98915.34
2023-05-03T12:46:25.723Z,98918.53
2023-05-03T12:48:47.751Z,98916.00
2023-05-03T12:53:47.270Z,98910.59
2023-05-03T12:56:14.639Z,98905.19
2023-05-03T12:59:05.100Z,98909.13
2023-05-03T13:04:31.343Z,98897.47
2023-05-03T13:06:47.012Z,98887.88
2023-05-03T13:09:20.736Z,98890.19
2023-05-03T13:11:49.953Z,98881.44
2023-05-03T13:14:16.945Z,98878.25
2023-05-03T13:16:45.784Z,98872.59
2023-05-03T13:19:16.190Z,98870.44
2023-05-03T13:21:42.770Z,98875.94
2023-05-03T13:24:09.518Z,98870.22
2023-05-03T13:26:36.195Z,98868.94
2023-05-03T13:29:02.721Z,98865.69
2023-05-03T13:31:30.294Z,98858.75
2023-05-03T13:33:57.320Z,98859.13
2023-05-03T13:36:24.332Z,98849.81
2023-05-03T13:38:51.781Z,98836.75
2023-05-03T13:41:18.919Z,98841.84
2023-05-03T13:43:45.863Z,98837.66
2023-05-03T13:46:12.613Z,98833.00
2023-05-03T13:48:39.690Z,98838.75
2023-05-03T13:51:10.718Z,98835.91
2023-05-03T13:53:37.355Z,98824.94
2023-05-03T13:56:04.577Z,98823.09
2023-05-03T13:58:31.174Z,98829.31
2023-05-03T14:00:57.846Z,98826.00
2023-05-03T14:03:24.475Z,98819.16
2023-05-03T14:05:51.033Z,98802.34
2023-05-03T14:08:17.601Z,98820.47
2023-05-03T14:10:44.325Z,98803.31
2023-05-03T14:13:11.381Z,98813.84
2023-05-03T14:15:43.148Z,98808.22
2023-05-03T14:18:10.197Z,98803.44
2023-05-03T14:20:37.077Z,98803.84
2023-05-03T14:23:03.864Z,98819.78
2023-05-03T14:25:30.940Z,98811.75
2023-05-03T14:27:57.493Z,98810.13
2023-05-03T14:30:24.294Z,98807.28
2023-05-03T14:32:51.154Z,98812.63
2023-05-03T14:35:20.770Z,98812.59
2023-05-03T14:37:47.352Z,98807.75
2023-05-03T14:40:14.421Z,98808.09
2023-05-03T14:42:41.147Z,98794.88
2023-05-03T14:45:10.932Z,98803.97
2023-05-03T14:47:39.292Z,98798.59
2023-05-03T14:50:06.509Z,98798.16
2023-05-03T14:52:35.596Z,98799.66
2023-05-03T14:55:09.782Z,98796.22
2023-05-03T14:57:38.053Z,98797.16
2023-05-03T15:00:07.563Z,98799.75
2023-05-03T15:02:34.448Z,98795.81
2023-05-03T15:05:01.272Z,98784.97
2023-05-03T15:07:28.151Z,98794.41
2023-05-03T15:09:54.616Z,98794.78
2023-05-03T15:12:21.051Z,98805.94
2023-05-03T15:14:48.124Z,98792.34
2023-05-03T15:17:14.684Z,98792.66
2023-05-03T15:19:41.421Z,98793.50
2023-05-03T15:22:08.083Z,98798.75
2023-05-03T15:24:34.695Z,98792.91
2023-05-03T15:27:02.863Z,98788.38
2023-05-03T15:29:29.388Z,98794.09
2023-05-03T15:31:56.073Z,98797.66
2023-05-03T15:34:22.560Z,98791.00
2023-05-03T15:36:49.070Z,98789.50
2023-05-03T15:39:15.656Z,98800.63
2023-05-03T15:41:42.119Z,98794.72
2023-05-03T15:44:09.823Z,98797.00
2023-05-03T15:46:36.741Z,98795.28
2023-05-03T15:49:03.594Z,98796.03
2023-05-03T15:51:30.095Z,98798.63
2023-05-03T15:53:56.640Z,98795.81
2023-05-03T15:56:23.347Z,98784.88
2023-05-03T15:58:50.077Z,98791.66
2023-05-03T16:01:16.756Z,98791.94
2023-05-03T16:03:43.311Z,98787.50
2023-05-03T16:06:09.782Z,98787.78
2023-05-03T16:08:36.860Z,98788.63
2023-05-03T16:11:03.639Z,98787.91
2023-05-03T16:13:30.242Z,98793.34
2023-05-03T16:15:57.027Z,98779.09
2023-05-03T16:18:24.411Z,98791.22
2023-05-03T16:20:51.225Z,98784.28
2023-05-03T16:23:17.757Z,98789.31
2023-05-03T16:25:44.343Z,98769.09
2023-05-03T16:28:11.024Z,98777.06
2023-05-03T16:30:39.856Z,98778.59
2023-05-03T16:33:06.673Z,98781.41
2023-05-03T16:35:33.231Z,98788.28
2023-05-03T16:38:00.009Z,98793.81
2023-05-03T16:40:27.052Z,98780.00
2023-05-03T16:42:55.677Z,98777.34
2023-05-03T16:45:22.417Z,98780.56
2023-05-03T16:47:48.979Z,98775.28
2023-05-03T16:50:17.383Z,98761.34
2023-05-03T16:52:44.509Z,98769.28
2023-05-03T16:55:12.542Z,98777.88
2023-05-03T16:57:39.952Z,98776.22
2023-05-03T17:00:09.296Z,98775.00
2023-05-03T17:02:37.881Z,98780.34
2023-05-03T17:05:05.758Z,98778.44
2023-05-03T17:07:33.109Z,98779.53
2023-05-03T17:10:01.044Z,98774.69
2023-05-03T17:12:28.021Z,98777.22
2023-05-03T17:14:54.986Z,98775.22
2023-05-03T17:17:22.284Z,98785.38
2023-05-03T17:19:48.789Z,98780.94
2023-05-03T17:22:15.259Z,98784.25
2023-05-03T17:24:41.760Z,98785.31
2023-05-03T17:27:08.835Z,98777.25
2023-05-03T17:29:35.734Z,98795.66
2023-05-03T17:32:03.254Z,98795.88
2023-05-03T17:34:29.889Z,98804.00
2023-05-03T17:36:59.041Z,98792.94
2023-05-03T17:39:25.638Z,98801.56
2023-05-03T17:41:52.059Z,98805.47
2023-05-03T17:44:19.053Z,98804.53
2023-05-03T17:46:46.047Z,98808.66
2023-05-03T17:49:12.624Z,98805.06
2023-05-03T17:51:39.082Z,98798.84
2023-05-03T17:54:05.808Z,98799.44
2023-05-03T17:56:32.309Z,98800.69
2023-05-03T17:58:58.819Z,98800.91
2023-05-03T18:01:25.505Z,98801.44
2023-05-03T18:03:52.214Z,98815.81
2023-05-03T18:06:18.902Z,98806.38
2023-05-03T18:08:45.459Z,98812.34
2023-05-03T18:11:12.113Z,98811.06
2023-05-03T18:13:39.648Z,98812.47
2023-05-03T18:16:09.510Z,98811.25
2023-05-03T18:18:36.106Z,98813.16
2023-05-03T18:21:04.585Z,98826.88
2023-05-03T18:23:32.584Z,98816.00
2023-05-03T18:26:00.047Z,98828.84
2023-05-03T18:28:27.636Z,98828.09
2023-05-03T18:30:55.791Z,98833.06
2023-05-03T18:33:22.428Z,98834.97
2023-05-03T18:35:50.055Z,98840.41
2023-05-03T18:38:18.952Z,98839.88
2023-05-03T18:40:46.886Z,98836.19
2023-05-03T18:43:13.615Z,98844.72
2023-05-03T18:45:40.388Z,98840.59
2023-05-03T18:48:07.668Z,98846.66
2023-05-03T18:50:35.963Z,98841.75
2023-05-03T18:53:02.408Z,98845.03
2023-05-03T18:55:28.853Z,98852.63
2023-05-03T18:57:55.463Z,98850.53
2023-05-03T19:00:22.016Z,98853.50
2023-05-03T19:02:48.589Z,98851.75
2023-05-03T19:05:15.473Z,98855.50
2023-05-03T19:07:43.070Z,98853.44
2023-05-03T19:10:10.478Z,98859.44
2023-05-03T19:12:37.011Z,98856.22
2023-05-03T19:15:03.724Z,98861.66
2023-05-03T19:17:30.284Z,98863.03
2023-05-03T19:19:56.842Z,98856.78
2023-05-03T19:22:23.511Z,98857.16
2023-05-03T19:24:49.976Z,98869.47
2023-05-03T19:27:17.562Z,98873.78
2023-05-03T19:29:44.323Z,98871.69
2023-05-03T19:32:11.957Z,98870.00
2023-05-03T19:34:38.487Z,98872.78
2023-05-03T19:37:05.130Z,98875.78
2023-05-03T19:39:35.500Z,98873.34
2023-05-03T19:42:02.387Z,98875.00
2023-05-03T19:44:30.075Z,98874.72
2023-05-03T19:46:56.894Z,98879.59
2023-05-03T19:49:26.475Z,98878.50
2023-05-03T19:51:54.027Z,98881.50
2023-05-03T19:54:22.714Z,98877.66
2023-05-03T19:56:50.298Z,98875.50
2023-05-03T19:59:16.822Z,98874.72
2023-05-03T20:01:45.175Z,98883.13
2023-05-03T20:04:11.946Z,98889.34
2023-05-03T20:06:38.869Z,98877.69
2023-05-03T20:09:05.758Z,98886.34
2023-05-03T20:11:32.274Z,98883.38
2023-05-03T20:13:58.729Z,98881.19
2023-05-03T20:16:27.293Z,98884.19
2023-05-03T20:18:54.016Z,98883.88
2023-05-03T20:21:20.519Z,98888.47
2023-05-03T20:23:49.603Z,98889.50
2023-05-03T20:26:16.331Z,98887.88
2023-05-03T20:28:42.809Z,98883.44
2023-05-03T20:31:10.950Z,98885.13
2023-05-03T20:33:37.582Z,98891.09
2023-05-03T20:36:04.366Z,98883.53
2023-05-03T20:38:30.831Z,98879.06
2023-05-03T20:40:57.391Z,98881.88
2023-05-03T20:43:23.917Z,98882.63
2023-05-03T20:45:50.502Z,98875.84
2023-05-03T20:48:17.382Z,98874.84
2023-05-03T20:50:43.938Z,98873.22
2023-05-03T20:53:10.436Z,98875.00
2023-05-03T20:55:38.548Z,98880.19
2023-05-03T20:58:05.121Z,98866.66
2023-05-03T21:00:31.753Z,98869.88
2023-05-03T21:02:58.359Z,98870.97
2023-05-03T21:05:24.953Z,98859.56
2023-05-03T21:07:51.622Z,98867.13
2023-05-03T21:10:18.113Z,98866.53
2023-05-03T21:12:44.656Z,98862.13
2023-05-03T21:15:11.461Z,98865.06
2023-05-03T21:17:37.979Z,98865.84
2023-05-03T21:20:05.927Z,98865.38
2023-05-03T21:22:32.799Z,98861.88
2023-05-03T21:24:59.318Z,98858.09
2023-05-03T21:27:25.750Z,98858.34
2023-05-03T21:29:52.260Z,98855.66
2023-05-03T21:32:18.711Z,98850.81
2023-05-03T21:34:45.885Z,98858.59
2023-05-03T21:37:12.487Z,98859.97
2023-05-03T21:39:39.594Z,98847.22
2023-05-03T21:42:06.464Z,98853.41
2023-05-03T21:44:32.961Z,98847.13
2023-05-03T21:47:00.037Z,98847.69
2023-05-03T21:49:26.725Z,98849.28
2023-05-03T21:51:53.768Z,98846.06
2023-05-03T21:54:20.819Z,98840.38
2023-05-03T21:56:48.080Z,98845.03
2023-05-03T21:59:15.176Z,98841.72
2023-05-03T22:01:41.847Z,98843.75
2023-05-03T22:04:08.632Z,98843.91
2023-05-03T22:06:35.550Z,98842.94
2023-05-03T22:09:02.194Z,98843.81
2023-05-03T22:11:28.889Z,98855.00
2023-05-03T22:14:06.790Z,98848.38
2023-05-03T22:16:34.548Z,98841.88
2023-05-03T22:19:01.109Z,98844.44
2023-05-03T22:21:27.562Z,98848.03
2023-05-03T22:23:54.083Z,98840.38
2023-05-03T22:26:20.591Z,98838.25
2023-05-03T22:28:47.082Z,98845.25
2023-05-03T22:31:13.703Z,98834.94
2023-05-03T22:33:40.390Z,98844.31
2023-05-03T22:36:07.312Z,98837.91
2023-05-03T22:38:33.748Z,98841.16
2023-05-03T22:41:00.209Z,98845.34
2023-05-03T22:43:26.797Z,98838.75
2023-05-03T22:45:53.366Z,98848.19
2023-05-03T22:48:19.867Z,98846.94
2023-05-03T22:50:46.325Z,98845.75
2023-05-03T22:53:12.871Z,98845.28
2023-05-03T22:55:39.303Z,98838.91
2023-05-03T22:58:06.043Z,98838.78
2023-05-03T23:00:33.033Z,98840.47
2023-05-03T23:02:59.616Z,98837.16
2023-05-03T23:05:26.296Z,98837.56
2023-05-03T23:07:52.749Z,98837.50
2023-05-03T23:10:19.306Z,98826.56
2023-05-03T23:12:45.977Z,98835.75
2023-05-03T23:15:12.617Z,98838.78
2023-05-03T23:17:39.164Z,98835.34
2023-05-03T23:20:06.584Z,98836.97
2023-05-03T23:22:33.251Z,98825.94
2023-05-03T23:24:59.927Z,98836.66
2023-05-03T23:27:26.895Z,98832.03
2023-05-03T23:29:53.810Z,98830.34
2023-05-03T23:32:21.031Z,98831.88
2023-05-03T23:34:48.033Z,98839.63
2023-05-03T23:37:14.529Z,98840.34
2023-05-03T23:39:44.829Z,98837.53
2023-05-03T23:42:12.869Z,98835.41
2023-05-03T23:44:53.761Z,98833.44
2023-05-03T23:47:22.058Z,98839.97
2023-05-03T23:49:48.626Z,98837.44
2023-05-03T23:52:16.953Z,98832.22
2023-05-03T23:54:43.576Z,98835.31
2023-05-03T23:57:10.283Z,98832.63
2023-05-03T23:59:36.711Z,98835.72
